createdAt,value
2023-04-24T00:00:15.988Z,10.60
2023-04-24T00:05:19.268Z,10.62
2023-04-24T00:10:22.773Z,10.70
2023-04-24T00:15:25.773Z,10.79
2023-04-24T00:20:33.692Z,10.90
2023-04-24T00:25:36.504Z,11.03
2023-04-24T00:30:39.522Z,11.15
2023-04-24T00:35:42.583Z,11.19
2023-04-24T00:40:46.056Z,11.30
2023-04-24T00:45:49.106Z,11.33
2023-04-24T00:50:52.182Z,11.36
2023-04-24T00:55:55.304Z,11.38
2023-04-24T01:00:59.732Z,11.40
2023-04-24T01:06:03.003Z,11.42
2023-04-24T01:11:06.588Z,11.39
2023-04-24T01:16:09.409Z,11.40
2023-04-24T01:21:19.656Z,11.35
2023-04-24T01:26:24.788Z,11.31
2023-04-24T01:31:27.772Z,11.30
2023-04-24T01:36:33.320Z,11.27
2023-04-24T01:41:36.329Z,11.26
2023-04-24T01:46:39.570Z,11.28
2023-04-24T01:51:42.717Z,11.31
2023-04-24T01:56:47.732Z,11.39
2023-04-24T02:01:50.699Z,11.42
2023-04-24T02:06:53.876Z,11.40
2023-04-24T02:11:57.488Z,11.34
2023-04-24T02:17:00.257Z,11.32
2023-04-24T02:22:03.184Z,11.28
2023-04-24T02:27:06.384Z,11.18
2023-04-24T02:32:13.340Z,11.14
2023-04-24T02:37:16.585Z,11.12
2023-04-24T02:42:19.703Z,11.08
2023-04-24T02:47:22.452Z,11.12
2023-04-24T02:52:25.544Z,11.15
2023-04-24T02:57:28.501Z,11.18
2023-04-24T03:02:31.562Z,11.20
2023-04-24T03:07:34.983Z,11.21
2023-04-24T03:12:37.879Z,11.26
2023-04-24T03:17:40.891Z,11.31
2023-04-24T03:22:43.735Z,11.30
2023-04-24T03:27:47.236Z,11.26
2023-04-24T03:32:50.301Z,11.28
2023-04-24T03:37:53.226Z,11.29
2023-04-24T03:42:56.293Z,11.27
2023-04-24T03:47:59.435Z,11.30
2023-04-24T03:53:02.446Z,11.33
2023-04-24T03:58:06.982Z,11.35
2023-04-24T04:03:10.167Z,11.35
2023-04-24T04:08:13.323Z,11.35
2023-04-24T04:13:16.390Z,11.39
2023-04-24T04:18:19.397Z,11.43
2023-04-24T04:23:22.348Z,11.43
2023-04-24T04:28:28.178Z,11.47
2023-04-24T04:33:32.029Z,11.50
2023-04-24T04:38:36.073Z,11.52
2023-04-24T04:43:40.749Z,11.60
2023-04-24T04:48:44.149Z,11.63
2023-04-24T04:53:47.152Z,11.68
2023-04-24T04:58:50.560Z,11.74
2023-04-24T05:03:53.618Z,11.75
2023-04-24T05:08:58.327Z,11.80
2023-04-24T05:14:01.434Z,11.87
2023-04-24T05:19:04.377Z,12.02
2023-04-24T05:24:08.005Z,12.13
2023-04-24T05:29:10.901Z,12.22
2023-04-24T05:34:13.866Z,12.25
2023-04-24T05:39:16.807Z,12.43
2023-04-24T05:44:19.897Z,12.52
2023-04-24T05:49:23.447Z,12.69
2023-04-24T05:54:26.444Z,12.72
2023-04-24T05:59:29.900Z,12.74
2023-04-24T06:04:34.188Z,12.71
2023-04-24T06:09:37.763Z,12.66
2023-04-24T06:14:40.889Z,12.65
2023-04-24T06:19:43.789Z,12.85
2023-04-24T06:24:48.340Z,12.94
2023-04-24T06:29:55.308Z,13.03
2023-04-24T06:34:59.507Z,13.16
2023-04-24T06:40:02.714Z,13.32
2023-04-24T06:45:06.328Z,13.40
2023-04-24T06:50:10.134Z,13.38
2023-04-24T06:55:13.132Z,13.46
2023-04-24T07:00:16.574Z,13.37
2023-04-24T07:05:21.013Z,13.53
2023-04-24T07:10:24.253Z,13.74
2023-04-24T07:15:27.619Z,13.89
2023-04-24T07:20:30.692Z,13.93
2023-04-24T07:25:34.065Z,14.01
2023-04-24T07:30:37.114Z,14.14
2023-04-24T07:35:40.070Z,14.35
2023-04-24T07:40:43.231Z,14.59
2023-04-24T07:45:46.411Z,14.83
2023-04-24T07:50:49.604Z,15.17
2023-04-24T07:55:52.635Z,15.39
2023-04-24T08:00:56.120Z,15.51
2023-04-24T08:05:59.331Z,15.55
2023-04-24T08:11:02.336Z,15.75
2023-04-24T08:16:05.685Z,16.01
2023-04-24T08:21:08.841Z,16.05
2023-04-24T08:26:12.323Z,16.02
2023-04-24T08:31:15.621Z,16.20
2023-04-24T08:36:18.637Z,16.40
2023-04-24T08:41:22.413Z,16.50
2023-04-24T08:46:26.396Z,16.62
2023-04-24T08:51:31.559Z,16.95
2023-04-24T08:56:38.941Z,17.53
2023-04-24T09:01:43.077Z,17.82
2023-04-24T09:06:46.076Z,18.36
2023-04-24T09:11:51.797Z,18.60
2023-04-24T09:16:55.031Z,18.46
2023-04-24T09:21:58.079Z,18.14
2023-04-24T09:27:02.517Z,17.91
2023-04-24T09:32:26.912Z,17.77
2023-04-24T09:37:31.158Z,18.01
2023-04-24T09:42:34.287Z,18.43
2023-04-24T09:47:41.327Z,18.83
2023-04-24T09:53:06.575Z,19.22
2023-04-24T09:58:10.356Z,19.56
2023-04-24T10:03:14.038Z,19.43
2023-04-24T10:08:17.144Z,19.24
2023-04-24T10:13:20.663Z,19.18
2023-04-24T10:18:25.275Z,19.00
2023-04-24T10:23:29.539Z,18.88
2023-04-24T10:28:35.160Z,19.04
2023-04-24T10:33:39.437Z,19.43
2023-04-24T10:38:47.261Z,19.85
2023-04-24T10:44:10.849Z,19.94
2023-04-24T10:49:17.035Z,19.97
2023-04-24T10:54:48.475Z,19.65
2023-04-24T11:00:13.540Z,19.25
2023-04-24T11:05:18.688Z,19.02
2023-04-24T11:10:28.440Z,18.82
2023-04-24T11:15:31.572Z,18.56
2023-04-24T11:20:34.657Z,18.38
2023-04-24T11:25:37.655Z,18.29
2023-04-24T11:30:41.426Z,18.25
2023-04-24T11:35:44.538Z,18.22
2023-04-24T11:40:50.182Z,18.12
2023-04-24T11:45:53.292Z,18.07
2023-04-24T11:50:56.761Z,18.02
2023-04-24T11:56:05.476Z,17.97
2023-04-24T12:01:08.478Z,17.90
2023-04-24T12:06:13.190Z,17.78
2023-04-24T12:11:19.005Z,17.72
2023-04-24T12:16:22.287Z,17.53
2023-04-24T12:21:27.666Z,17.25
2023-04-24T12:26:30.990Z,17.01
2023-04-24T12:31:34.251Z,16.82
2023-04-24T12:36:37.325Z,16.74
2023-04-24T12:42:00.407Z,16.75
2023-04-24T12:47:03.653Z,16.79
2023-04-24T12:52:06.651Z,16.83
2023-04-24T12:57:09.658Z,16.98
2023-04-24T13:02:13.059Z,17.30
2023-04-24T13:07:16.496Z,17.69
2023-04-24T13:12:19.558Z,17.98
2023-04-24T13:17:23.489Z,18.12
2023-04-24T13:22:26.536Z,18.16
2023-04-24T13:27:29.511Z,18.04
2023-04-24T13:32:34.425Z,17.85
2023-04-24T13:37:37.555Z,17.80
2023-04-24T13:42:41.170Z,17.79
2023-04-24T13:47:44.144Z,17.83
2023-04-24T13:52:47.242Z,17.87
2023-04-24T13:57:50.561Z,17.60
2023-04-24T14:02:53.686Z,17.34
2023-04-24T14:07:57.291Z,17.15
2023-04-24T14:13:00.385Z,16.88
2023-04-24T14:18:05.742Z,16.70
2023-04-24T14:23:09.528Z,16.56
2023-04-24T14:28:12.555Z,16.45
2023-04-24T14:33:16.193Z,16.24
2023-04-24T14:38:19.133Z,16.01
2023-04-24T14:43:22.173Z,15.73
2023-04-24T14:48:25.773Z,15.62
2023-04-24T14:53:28.841Z,15.57
2023-04-24T14:58:31.889Z,15.46
2023-04-24T15:03:35.134Z,15.38
2023-04-24T15:08:38.275Z,15.30
2023-04-24T15:13:41.274Z,15.22
2023-04-24T15:18:44.365Z,15.21
2023-04-24T15:23:47.616Z,15.12
2023-04-24T15:28:51.478Z,15.00
2023-04-24T15:33:54.465Z,14.89
2023-04-24T15:38:57.798Z,14.87
2023-04-24T15:44:01.110Z,14.92
2023-04-24T15:49:04.266Z,14.95
2023-04-24T15:54:08.403Z,14.92
2023-04-24T15:59:11.488Z,14.84
2023-04-24T16:04:14.796Z,14.78
2023-04-24T16:09:18.422Z,14.64
2023-04-24T16:14:21.419Z,14.53
2023-04-24T16:19:24.682Z,14.43
2023-04-24T16:24:29.605Z,14.32
2023-04-24T16:29:32.793Z,14.23
2023-04-24T16:34:35.779Z,14.13
2023-04-24T16:39:39.004Z,14.11
2023-04-24T16:44:43.139Z,14.05
2023-04-24T16:49:46.265Z,13.98
2023-04-24T16:54:49.285Z,13.92
2023-04-24T16:59:52.299Z,13.87
2023-04-24T17:04:55.570Z,13.80
2023-04-24T17:09:58.618Z,13.75
2023-04-24T17:15:01.688Z,13.73
2023-04-24T17:20:18.586Z,13.69
2023-04-24T17:25:25.128Z,13.60
2023-04-24T17:30:28.105Z,13.48
2023-04-24T17:35:31.144Z,13.41
2023-04-24T17:40:34.490Z,13.32
2023-04-24T17:45:37.757Z,13.23
2023-04-24T17:50:41.076Z,13.11
2023-04-24T17:55:44.531Z,13.02
2023-04-24T18:00:47.499Z,12.93
2023-04-24T18:05:50.864Z,12.83
2023-04-24T18:10:54.764Z,12.80
2023-04-24T18:15:57.784Z,12.70
2023-04-24T18:21:01.042Z,12.64
2023-04-24T18:26:04.247Z,12.56
2023-04-24T18:31:08.667Z,12.51
2023-04-24T18:36:11.552Z,12.50
2023-04-24T18:41:14.816Z,12.48
2023-04-24T18:46:18.317Z,12.48
2023-04-24T18:51:21.197Z,12.45
2023-04-24T18:56:24.167Z,12.44
2023-04-24T19:01:27.471Z,12.41
2023-04-24T19:06:31.932Z,12.36
2023-04-24T19:11:35.031Z,12.31
2023-04-24T19:16:38.071Z,12.30
2023-04-24T19:21:41.300Z,12.27
2023-04-24T19:26:45.371Z,12.24
2023-04-24T19:31:48.399Z,12.23
2023-04-24T19:36:51.520Z,12.23
2023-04-24T19:41:57.142Z,12.25
2023-04-24T19:47:00.424Z,12.24
2023-04-24T19:52:03.390Z,12.22
2023-04-24T19:57:06.741Z,12.24
2023-04-24T20:02:11.601Z,12.25
2023-04-24T20:07:14.695Z,12.26
2023-04-24T20:12:19.544Z,12.23
2023-04-24T20:17:22.530Z,12.17
2023-04-24T20:22:25.585Z,12.15
2023-04-24T20:27:30.283Z,12.15
2023-04-24T20:32:33.395Z,12.21
2023-04-24T20:37:36.937Z,12.21
2023-04-24T20:42:40.246Z,12.24
2023-04-24T20:47:43.132Z,12.27
2023-04-24T20:52:46.652Z,12.28
2023-04-24T20:57:49.678Z,12.26
2023-04-24T21:02:52.792Z,12.27
2023-04-24T21:07:56.289Z,12.24
2023-04-24T21:12:59.354Z,12.23
2023-04-24T21:18:03.390Z,12.21
2023-04-24T21:23:06.386Z,12.22
2023-04-24T21:28:09.282Z,12.22
2023-04-24T21:33:12.690Z,12.18
2023-04-24T21:38:15.768Z,12.15
2023-04-24T21:43:20.600Z,12.12
2023-04-24T21:48:26.437Z,12.07
2023-04-24T21:53:29.829Z,12.01
2023-04-24T21:58:32.836Z,11.98
2023-04-24T22:03:36.012Z,11.94
2023-04-24T22:08:39.174Z,11.90
2023-04-24T22:13:42.865Z,11.89
2023-04-24T22:18:47.702Z,11.88
2023-04-24T22:23:51.711Z,11.83
2023-04-24T22:28:54.939Z,11.77
2023-04-24T22:33:57.957Z,11.73
2023-04-24T22:39:00.874Z,11.70
2023-04-24T22:44:04.139Z,11.64
2023-04-24T22:49:07.390Z,11.60
2023-04-24T22:54:10.997Z,11.53
2023-04-24T22:59:13.968Z,11.51
2023-04-24T23:04:16.981Z,11.47
2023-04-24T23:09:20.095Z,11.44
2023-04-24T23:14:24.662Z,11.43
2023-04-24T23:19:27.830Z,11.45
2023-04-24T23:24:30.897Z,11.50
2023-04-24T23:29:33.997Z,11.54
2023-04-24T23:34:39.406Z,11.58
2023-04-24T23:39:42.258Z,11.62
2023-04-24T23:44:45.408Z,11.63
2023-04-24T23:49:48.334Z,11.62
2023-04-24T23:54:51.320Z,11.62
2023-04-24T23:59:54.419Z,11.63
